sensor_id;sensor_type;location;lat;lon;timestamp;P1;durP1;ratioP1;P2;durP2;ratioP2
54555;SDS011;57291;37.520;15.106;2022-09-09T00:02:10;9.57;;;2.85;;
54555;SDS011;57291;37.520;15.106;2022-09-09T00:07:35;10.80;;;2.63;;
54555;SDS011;57291;37.520;15.106;2022-09-09T00:12:57;16.13;;;2.97;;
54555;SDS011;57291;37.520;15.106;2022-09-09T00:21:08;10.90;;;2.60;;
54555;SDS011;57291;37.520;15.106;2022-09-09T00:26:16;12.00;;;2.97;;
54555;SDS011;57291;37.520;15.106;2022-09-09T00:31:36;12.32;;;2.88;;
54555;SDS011;57291;37.520;15.106;2022-09-09T00:34:09;15.63;;;2.92;;
54555;SDS011;57291;37.520;15.106;2022-09-09T00:36:41;13.25;;;3.20;;
54555;SDS011;57291;37.520;15.106;2022-09-09T00:39:27;8.32;;;2.67;;
54555;SDS011;57291;37.520;15.106;2022-09-09T00:44:33;13.05;;;3.22;;
54555;SDS011;57291;37.520;15.106;2022-09-09T00:57:46;13.77;;;3.15;;
54555;SDS011;57291;37.520;15.106;2022-09-09T01:00:22;7.88;;;3.13;;
54555;SDS011;57291;37.520;15.106;2022-09-09T01:08:32;8.80;;;2.90;;
54555;SDS011;57291;37.520;15.106;2022-09-09T01:11:23;9.20;;;3.30;;
54555;SDS011;57291;37.520;15.106;2022-09-09T01:13:58;9.90;;;3.10;;
54555;SDS011;57291;37.520;15.106;2022-09-09T01:16:37;9.88;;;3.53;;
54555;SDS011;57291;37.520;15.106;2022-09-09T01:19:05;11.10;;;2.85;;
54555;SDS011;57291;37.520;15.106;2022-09-09T01:21:50;12.32;;;2.95;;
54555;SDS011;57291;37.520;15.106;2022-09-09T01:24:27;10.43;;;3.20;;
54555;SDS011;57291;37.520;15.106;2022-09-09T01:27:14;9.55;;;3.03;;
54555;SDS011;57291;37.520;15.106;2022-09-09T01:29:45;11.35;;;2.75;;
54555;SDS011;57291;37.520;15.106;2022-09-09T01:38:00;9.45;;;2.88;;
54555;SDS011;57291;37.520;15.106;2022-09-09T01:40:28;10.75;;;3.40;;
54555;SDS011;57291;37.520;15.106;2022-09-09T01:42:56;7.47;;;3.03;;
54555;SDS011;57291;37.520;15.106;2022-09-09T01:45:24;9.73;;;2.90;;
54555;SDS011;57291;37.520;15.106;2022-09-09T01:47:52;13.40;;;3.28;;
54555;SDS011;57291;37.520;15.106;2022-09-09T01:50:39;16.13;;;3.33;;
54555;SDS011;57291;37.520;15.106;2022-09-09T01:53:07;15.80;;;3.20;;
54555;SDS011;57291;37.520;15.106;2022-09-09T01:55:38;18.48;;;3.58;;
54555;SDS011;57291;37.520;15.106;2022-09-09T02:01:00;12.98;;;3.13;;
54555;SDS011;57291;37.520;15.106;2022-09-09T02:03:33;10.50;;;3.38;;
54555;SDS011;57291;37.520;15.106;2022-09-09T02:06:15;19.83;;;3.55;;
54555;SDS011;57291;37.520;15.106;2022-09-09T02:08:57;13.73;;;3.50;;
54555;SDS011;57291;37.520;15.106;2022-09-09T02:11:28;12.18;;;3.78;;
54555;SDS011;57291;37.520;15.106;2022-09-09T02:14:08;13.45;;;3.58;;
54555;SDS011;57291;37.520;15.106;2022-09-09T02:16:44;13.77;;;3.38;;
54555;SDS011;57291;37.520;15.106;2022-09-09T02:19:19;14.80;;;3.50;;
54555;SDS011;57291;37.520;15.106;2022-09-09T02:22:01;11.13;;;3.95;;
54555;SDS011;57291;37.520;15.106;2022-09-09T02:24:30;16.60;;;4.70;;
54555;SDS011;57291;37.520;15.106;2022-09-09T02:27:21;12.57;;;5.30;;
54555;SDS011;57291;37.520;15.106;2022-09-09T02:29:50;13.18;;;5.13;;
54555;SDS011;57291;37.520;15.106;2022-09-09T02:32:32;21.30;;;5.72;;
54555;SDS011;57291;37.520;15.106;2022-09-09T02:35:15;11.50;;;5.20;;
54555;SDS011;57291;37.520;15.106;2022-09-09T02:37:47;22.27;;;4.82;;
54555;SDS011;57291;37.520;15.106;2022-09-09T02:40:17;19.45;;;4.60;;
54555;SDS011;57291;37.520;15.106;2022-09-09T02:42:49;21.23;;;4.38;;
54555;SDS011;57291;37.520;15.106;2022-09-09T02:45:19;17.55;;;4.25;;
54555;SDS011;57291;37.520;15.106;2022-09-09T02:50:24;10.52;;;3.10;;
54555;SDS011;57291;37.520;15.106;2022-09-09T02:55:47;14.07;;;3.83;;
54555;SDS011;57291;37.520;15.106;2022-09-09T02:58:19;13.85;;;3.00;;
54555;SDS011;57291;37.520;15.106;2022-09-09T03:01:01;13.82;;;3.92;;
54555;SDS011;57291;37.520;15.106;2022-09-09T03:03:30;18.08;;;3.53;;
54555;SDS011;57291;37.520;15.106;2022-09-09T03:06:01;16.20;;;3.35;;
54555;SDS011;57291;37.520;15.106;2022-09-09T03:08:28;18.52;;;4.43;;
54555;SDS011;57291;37.520;15.106;2022-09-09T03:11:00;19.85;;;4.25;;
54555;SDS011;57291;37.520;15.106;2022-09-09T03:13:31;18.38;;;3.78;;
54555;SDS011;57291;37.520;15.106;2022-09-09T03:15:58;14.77;;;3.28;;
54555;SDS011;57291;37.520;15.106;2022-09-09T03:18:30;17.77;;;3.05;;
54555;SDS011;57291;37.520;15.106;2022-09-09T03:20:58;17.80;;;3.42;;
54555;SDS011;57291;37.520;15.106;2022-09-09T03:23:27;14.43;;;3.13;;
54555;SDS011;57291;37.520;15.106;2022-09-09T03:25:56;17.38;;;3.63;;
54555;SDS011;57291;37.520;15.106;2022-09-09T03:28:39;20.38;;;3.40;;
54555;SDS011;57291;37.520;15.106;2022-09-09T03:31:07;11.50;;;2.60;;
54555;SDS011;57291;37.520;15.106;2022-09-09T03:33:41;16.85;;;3.70;;
54555;SDS011;57291;37.520;15.106;2022-09-09T03:36:12;18.55;;;5.22;;
54555;SDS011;57291;37.520;15.106;2022-09-09T03:38:39;15.05;;;3.83;;
54555;SDS011;57291;37.520;15.106;2022-09-09T03:41:07;12.02;;;3.13;;
54555;SDS011;57291;37.520;15.106;2022-09-09T03:43:37;12.10;;;3.13;;
54555;SDS011;57291;37.520;15.106;2022-09-09T03:46:04;17.40;;;3.38;;
54555;SDS011;57291;37.520;15.106;2022-09-09T03:48:31;16.77;;;3.28;;
54555;SDS011;57291;37.520;15.106;2022-09-09T03:51:00;14.32;;;3.47;;
54555;SDS011;57291;37.520;15.106;2022-09-09T03:53:30;12.93;;;3.35;;
54555;SDS011;57291;37.520;15.106;2022-09-09T03:55:59;14.65;;;2.72;;
54555;SDS011;57291;37.520;15.106;2022-09-09T03:58:28;24.02;;;3.42;;
54555;SDS011;57291;37.520;15.106;2022-09-09T04:01:08;12.05;;;3.53;;
54555;SDS011;57291;37.520;15.106;2022-09-09T04:03:42;20.33;;;3.47;;
54555;SDS011;57291;37.520;15.106;2022-09-09T04:06:09;19.98;;;3.50;;
54555;SDS011;57291;37.520;15.106;2022-09-09T04:08:42;22.90;;;3.55;;
54555;SDS011;57291;37.520;15.106;2022-09-09T04:11:09;14.35;;;3.60;;
54555;SDS011;57291;37.520;15.106;2022-09-09T04:13:37;12.32;;;2.92;;
54555;SDS011;57291;37.520;15.106;2022-09-09T04:16:09;16.98;;;3.53;;
54555;SDS011;57291;37.520;15.106;2022-09-09T04:18:40;19.30;;;3.85;;
54555;SDS011;57291;37.520;15.106;2022-09-09T04:21:08;18.63;;;3.78;;
54555;SDS011;57291;37.520;15.106;2022-09-09T04:23:37;13.20;;;3.10;;
54555;SDS011;57291;37.520;15.106;2022-09-09T04:26:04;18.05;;;3.63;;
54555;SDS011;57291;37.520;15.106;2022-09-09T04:28:34;16.63;;;3.28;;
54555;SDS011;57291;37.520;15.106;2022-09-09T04:31:06;19.10;;;3.60;;
54555;SDS011;57291;37.520;15.106;2022-09-09T04:33:38;16.98;;;3.70;;
54555;SDS011;57291;37.520;15.106;2022-09-09T04:36:08;13.77;;;3.97;;
54555;SDS011;57291;37.520;15.106;2022-09-09T04:38:36;17.52;;;3.58;;
54555;SDS011;57291;37.520;15.106;2022-09-09T04:41:03;14.30;;;3.58;;
54555;SDS011;57291;37.520;15.106;2022-09-09T04:43:33;15.40;;;3.17;;
54555;SDS011;57291;37.520;15.106;2022-09-09T04:46:03;20.02;;;3.38;;
54555;SDS011;57291;37.520;15.106;2022-09-09T04:48:31;15.88;;;3.80;;
54555;SDS011;57291;37.520;15.106;2022-09-09T04:51:04;25.33;;;3.78;;
54555;SDS011;57291;37.520;15.106;2022-09-09T04:53:33;17.50;;;3.72;;
54555;SDS011;57291;37.520;15.106;2022-09-09T04:56:05;23.67;;;3.75;;
54555;SDS011;57291;37.520;15.106;2022-09-09T04:58:43;19.00;;;3.50;;
54555;SDS011;57291;37.520;15.106;2022-09-09T05:01:14;13.38;;;3.00;;
54555;SDS011;57291;37.520;15.106;2022-09-09T05:03:45;18.15;;;3.50;;
54555;SDS011;57291;37.520;15.106;2022-09-09T05:06:22;20.65;;;3.55;;
54555;SDS011;57291;37.520;15.106;2022-09-09T05:08:54;13.77;;;3.20;;
54555;SDS011;57291;37.520;15.106;2022-09-09T05:11:25;19.35;;;3.72;;
54555;SDS011;57291;37.520;15.106;2022-09-09T05:14:00;19.80;;;3.83;;
54555;SDS011;57291;37.520;15.106;2022-09-09T05:16:29;18.02;;;3.58;;
54555;SDS011;57291;37.520;15.106;2022-09-09T05:18:58;17.55;;;3.35;;
54555;SDS011;57291;37.520;15.106;2022-09-09T05:21:34;15.30;;;3.28;;
54555;SDS011;57291;37.520;15.106;2022-09-09T05:24:01;16.17;;;3.53;;
54555;SDS011;57291;37.520;15.106;2022-09-09T05:26:29;17.08;;;3.35;;
54555;SDS011;57291;37.520;15.106;2022-09-09T05:28:59;17.67;;;4.38;;
54555;SDS011;57291;37.520;15.106;2022-09-09T05:31:29;19.73;;;3.05;;
54555;SDS011;57291;37.520;15.106;2022-09-09T05:34:01;16.40;;;3.60;;
54555;SDS011;57291;37.520;15.106;2022-09-09T05:36:28;21.77;;;3.15;;
54555;SDS011;57291;37.520;15.106;2022-09-09T05:38:56;17.42;;;3.70;;
54555;SDS011;57291;37.520;15.106;2022-09-09T05:41:25;17.92;;;3.83;;
54555;SDS011;57291;37.520;15.106;2022-09-09T05:43:55;17.00;;;4.13;;
54555;SDS011;57291;37.520;15.106;2022-09-09T05:46:23;16.17;;;3.72;;
54555;SDS011;57291;37.520;15.106;2022-09-09T05:48:53;14.57;;;4.30;;
54555;SDS011;57291;37.520;15.106;2022-09-09T05:51:27;17.65;;;3.50;;
54555;SDS011;57291;37.520;15.106;2022-09-09T05:54:04;23.63;;;4.15;;
54555;SDS011;57291;37.520;15.106;2022-09-09T05:56:35;25.53;;;3.90;;
54555;SDS011;57291;37.520;15.106;2022-09-09T05:59:05;13.43;;;3.17;;
54555;SDS011;57291;37.520;15.106;2022-09-09T06:01:34;18.75;;;3.42;;
54555;SDS011;57291;37.520;15.106;2022-09-09T06:04:04;18.70;;;3.63;;
54555;SDS011;57291;37.520;15.106;2022-09-09T06:06:33;20.58;;;3.97;;
54555;SDS011;57291;37.520;15.106;2022-09-09T06:09:09;13.65;;;3.53;;
54555;SDS011;57291;37.520;15.106;2022-09-09T06:11:40;21.05;;;3.58;;
54555;SDS011;57291;37.520;15.106;2022-09-09T06:14:08;15.27;;;3.15;;
54555;SDS011;57291;37.520;15.106;2022-09-09T06:16:36;23.15;;;3.38;;
54555;SDS011;57291;37.520;15.106;2022-09-09T06:19:15;25.35;;;4.35;;
54555;SDS011;57291;37.520;15.106;2022-09-09T06:21:43;23.15;;;3.70;;
54555;SDS011;57291;37.520;15.106;2022-09-09T06:24:11;12.63;;;3.65;;
54555;SDS011;57291;37.520;15.106;2022-09-09T06:26:41;15.13;;;4.05;;
54555;SDS011;57291;37.520;15.106;2022-09-09T06:29:11;29.42;;;4.43;;
54555;SDS011;57291;37.520;15.106;2022-09-09T06:31:41;22.23;;;4.22;;
54555;SDS011;57291;37.520;15.106;2022-09-09T06:34:19;18.05;;;3.78;;
54555;SDS011;57291;37.520;15.106;2022-09-09T06:36:49;23.23;;;4.53;;
54555;SDS011;57291;37.520;15.106;2022-09-09T06:39:17;25.67;;;4.55;;
54555;SDS011;57291;37.520;15.106;2022-09-09T06:41:45;15.57;;;3.70;;
54555;SDS011;57291;37.520;15.106;2022-09-09T06:44:32;17.10;;;3.33;;
54555;SDS011;57291;37.520;15.106;2022-09-09T06:47:03;13.18;;;4.13;;
54555;SDS011;57291;37.520;15.106;2022-09-09T06:49:32;29.05;;;3.58;;
54555;SDS011;57291;37.520;15.106;2022-09-09T06:52:01;25.80;;;4.28;;
54555;SDS011;57291;37.520;15.106;2022-09-09T06:54:29;20.27;;;4.57;;
54555;SDS011;57291;37.520;15.106;2022-09-09T06:56:57;25.63;;;4.00;;
54555;SDS011;57291;37.520;15.106;2022-09-09T06:59:47;16.55;;;4.72;;
54555;SDS011;57291;37.520;15.106;2022-09-09T07:02:15;20.60;;;4.25;;
54555;SDS011;57291;37.520;15.106;2022-09-09T07:04:43;26.50;;;3.75;;
54555;SDS011;57291;37.520;15.106;2022-09-09T07:07:10;20.80;;;3.65;;
54555;SDS011;57291;37.520;15.106;2022-09-09T07:09:40;19.75;;;3.65;;
54555;SDS011;57291;37.520;15.106;2022-09-09T07:12:08;23.52;;;3.67;;
54555;SDS011;57291;37.520;15.106;2022-09-09T07:14:43;20.60;;;3.55;;
54555;SDS011;57291;37.520;15.106;2022-09-09T07:17:12;21.40;;;4.20;;
54555;SDS011;57291;37.520;15.106;2022-09-09T07:19:39;19.17;;;3.85;;
54555;SDS011;57291;37.520;15.106;2022-09-09T07:22:06;16.27;;;3.67;;
54555;SDS011;57291;37.520;15.106;2022-09-09T07:24:35;20.63;;;3.22;;
54555;SDS011;57291;37.520;15.106;2022-09-09T07:27:02;24.20;;;3.88;;
54555;SDS011;57291;37.520;15.106;2022-09-09T07:29:31;13.05;;;3.58;;
54555;SDS011;57291;37.520;15.106;2022-09-09T07:31:58;22.02;;;4.05;;
54555;SDS011;57291;37.520;15.106;2022-09-09T07:34:33;23.45;;;3.75;;
54555;SDS011;57291;37.520;15.106;2022-09-09T07:37:01;23.27;;;4.35;;
54555;SDS011;57291;37.520;15.106;2022-09-09T07:39:30;26.80;;;3.58;;
54555;SDS011;57291;37.520;15.106;2022-09-09T07:41:57;23.83;;;3.75;;
54555;SDS011;57291;37.520;15.106;2022-09-09T07:44:26;17.40;;;3.53;;
54555;SDS011;57291;37.520;15.106;2022-09-09T07:47:00;15.07;;;3.33;;
54555;SDS011;57291;37.520;15.106;2022-09-09T07:49:33;17.40;;;3.20;;
54555;SDS011;57291;37.520;15.106;2022-09-09T07:52:03;20.88;;;3.40;;
54555;SDS011;57291;37.520;15.106;2022-09-09T07:54:31;30.10;;;3.75;;
54555;SDS011;57291;37.520;15.106;2022-09-09T07:57:02;22.45;;;3.97;;
54555;SDS011;57291;37.520;15.106;2022-09-09T07:59:32;23.60;;;3.40;;
54555;SDS011;57291;37.520;15.106;2022-09-09T08:02:01;16.23;;;3.20;;
54555;SDS011;57291;37.520;15.106;2022-09-09T08:04:31;23.95;;;4.05;;
54555;SDS011;57291;37.520;15.106;2022-09-09T08:07:00;18.85;;;3.53;;
54555;SDS011;57291;37.520;15.106;2022-09-09T08:09:31;20.45;;;3.63;;
54555;SDS011;57291;37.520;15.106;2022-09-09T08:12:06;24.20;;;3.80;;
54555;SDS011;57291;37.520;15.106;2022-09-09T08:14:34;24.48;;;3.67;;
54555;SDS011;57291;37.520;15.106;2022-09-09T08:17:02;24.30;;;3.83;;
54555;SDS011;57291;37.520;15.106;2022-09-09T08:19:31;17.63;;;3.50;;
54555;SDS011;57291;37.520;15.106;2022-09-09T08:22:07;18.65;;;3.60;;
54555;SDS011;57291;37.520;15.106;2022-09-09T08:24:38;24.65;;;3.72;;
54555;SDS011;57291;37.520;15.106;2022-09-09T08:27:06;22.02;;;3.80;;
54555;SDS011;57291;37.520;15.106;2022-09-09T08:29:34;23.50;;;3.35;;
54555;SDS011;57291;37.520;15.106;2022-09-09T08:32:02;17.33;;;3.55;;
54555;SDS011;57291;37.520;15.106;2022-09-09T08:34:30;26.33;;;3.90;;
54555;SDS011;57291;37.520;15.106;2022-09-09T08:37:02;14.25;;;3.47;;
54555;SDS011;57291;37.520;15.106;2022-09-09T08:39:35;20.00;;;3.45;;
54555;SDS011;57291;37.520;15.106;2022-09-09T08:50:54;13.90;;;3.15;;
54555;SDS011;57291;37.520;15.106;2022-09-09T08:53:38;17.92;;;3.28;;
54555;SDS011;57291;37.520;15.106;2022-09-09T08:56:25;22.55;;;3.63;;
54555;SDS011;57291;37.520;15.106;2022-09-09T08:58:56;24.38;;;4.38;;
54555;SDS011;57291;37.520;15.106;2022-09-09T09:02:14;19.40;;;3.60;;
54555;SDS011;57291;37.520;15.106;2022-09-09T09:05:32;21.58;;;4.80;;
54555;SDS011;57291;37.520;15.106;2022-09-09T09:08:06;27.17;;;5.15;;
54555;SDS011;57291;37.520;15.106;2022-09-09T09:10:49;25.85;;;4.75;;
54555;SDS011;57291;37.520;15.106;2022-09-09T09:16:16;18.58;;;4.13;;
54555;SDS011;57291;37.520;15.106;2022-09-09T09:18:51;16.67;;;3.90;;
54555;SDS011;57291;37.520;15.106;2022-09-09T09:21:27;12.32;;;3.80;;
54555;SDS011;57291;37.520;15.106;2022-09-09T09:24:18;21.90;;;3.92;;
54555;SDS011;57291;37.520;15.106;2022-09-09T09:26:49;22.95;;;3.90;;
54555;SDS011;57291;37.520;15.106;2022-09-09T09:29:19;16.38;;;3.92;;
54555;SDS011;57291;37.520;15.106;2022-09-09T09:31:52;23.50;;;4.13;;
54555;SDS011;57291;37.520;15.106;2022-09-09T09:34:24;21.75;;;4.40;;
54555;SDS011;57291;37.520;15.106;2022-09-09T09:36:57;23.60;;;4.53;;
54555;SDS011;57291;37.520;15.106;2022-09-09T09:39:32;26.95;;;4.00;;
54555;SDS011;57291;37.520;15.106;2022-09-09T09:42:26;24.33;;;4.13;;
54555;SDS011;57291;37.520;15.106;2022-09-09T09:44:56;19.98;;;3.90;;
54555;SDS011;57291;37.520;15.106;2022-09-09T09:47:33;19.15;;;3.55;;
54555;SDS011;57291;37.520;15.106;2022-09-09T09:50:18;18.95;;;3.53;;
54555;SDS011;57291;37.520;15.106;2022-09-09T09:52:54;17.83;;;4.43;;
54555;SDS011;57291;37.520;15.106;2022-09-09T09:55:25;16.77;;;4.30;;
54555;SDS011;57291;37.520;15.106;2022-09-09T09:58:03;25.45;;;4.07;;
54555;SDS011;57291;37.520;15.106;2022-09-09T10:00:33;20.70;;;3.80;;
54555;SDS011;57291;37.520;15.106;2022-09-09T10:03:29;24.00;;;3.80;;
54555;SDS011;57291;37.520;15.106;2022-09-09T10:05:57;24.52;;;3.58;;
54555;SDS011;57291;37.520;15.106;2022-09-09T10:08:25;24.10;;;3.97;;
54555;SDS011;57291;37.520;15.106;2022-09-09T10:13:39;19.85;;;4.40;;
54555;SDS011;57291;37.520;15.106;2022-09-09T10:19:04;24.05;;;3.92;;
54555;SDS011;57291;37.520;15.106;2022-09-09T10:33:50;22.60;;;4.18;;
54555;SDS011;57291;37.520;15.106;2022-09-09T10:36:25;20.33;;;3.15;;
54555;SDS011;57291;37.520;15.106;2022-09-09T10:39:13;25.03;;;4.43;;
54555;SDS011;57291;37.520;15.106;2022-09-09T10:42:04;27.27;;;4.13;;
54555;SDS011;57291;37.520;15.106;2022-09-09T10:47:19;20.77;;;3.70;;
54555;SDS011;57291;37.520;15.106;2022-09-09T10:56:16;20.95;;;4.25;;
54555;SDS011;57291;37.520;15.106;2022-09-09T10:58:56;21.95;;;3.88;;
54555;SDS011;57291;37.520;15.106;2022-09-09T11:01:35;25.25;;;4.32;;
54555;SDS011;57291;37.520;15.106;2022-09-09T11:04:19;19.67;;;4.25;;
54555;SDS011;57291;37.520;15.106;2022-09-09T11:06:52;20.52;;;3.97;;
54555;SDS011;57291;37.520;15.106;2022-09-09T11:09:26;18.90;;;3.97;;
54555;SDS011;57291;37.520;15.106;2022-09-09T11:11:58;17.42;;;4.10;;
54555;SDS011;57291;37.520;15.106;2022-09-09T11:14:38;20.75;;;4.25;;
54555;SDS011;57291;37.520;15.106;2022-09-09T11:17:14;20.33;;;4.05;;
54555;SDS011;57291;37.520;15.106;2022-09-09T11:19:45;16.55;;;3.55;;
54555;SDS011;57291;37.520;15.106;2022-09-09T11:24:54;15.75;;;3.60;;
54555;SDS011;57291;37.520;15.106;2022-09-09T11:27:49;24.25;;;4.07;;
54555;SDS011;57291;37.520;15.106;2022-09-09T11:42:16;24.73;;;4.60;;
54555;SDS011;57291;37.520;15.106;2022-09-09T11:47:27;20.80;;;4.47;;
54555;SDS011;57291;37.520;15.106;2022-09-09T11:58:00;19.80;;;4.25;;
54555;SDS011;57291;37.520;15.106;2022-09-09T12:09:12;14.20;;;4.03;;
54555;SDS011;57291;37.520;15.106;2022-09-09T12:19:59;19.98;;;4.30;;
54555;SDS011;57291;37.520;15.106;2022-09-09T12:33:33;18.88;;;3.80;;
54555;SDS011;57291;37.520;15.106;2022-09-09T12:36:03;18.27;;;3.97;;
54555;SDS011;57291;37.520;15.106;2022-09-09T12:38:36;22.15;;;4.22;;
54555;SDS011;57291;37.520;15.106;2022-09-09T12:41:15;19.85;;;4.68;;
54555;SDS011;57291;37.520;15.106;2022-09-09T12:44:03;17.27;;;3.53;;
54555;SDS011;57291;37.520;15.106;2022-09-09T12:46:36;22.27;;;4.22;;
54555;SDS011;57291;37.520;15.106;2022-09-09T12:52:01;16.95;;;3.97;;
54555;SDS011;57291;37.520;15.106;2022-09-09T12:54:33;15.32;;;4.10;;
54555;SDS011;57291;37.520;15.106;2022-09-09T12:57:03;20.23;;;4.35;;
54555;SDS011;57291;37.520;15.106;2022-09-09T12:59:39;18.88;;;4.40;;
54555;SDS011;57291;37.520;15.106;2022-09-09T13:02:26;17.95;;;4.35;;
54555;SDS011;57291;37.520;15.106;2022-09-09T13:05:05;17.55;;;4.95;;
54555;SDS011;57291;37.520;15.106;2022-09-09T13:07:41;22.27;;;4.43;;
54555;SDS011;57291;37.520;15.106;2022-09-09T13:10:13;19.42;;;4.10;;
54555;SDS011;57291;37.520;15.106;2022-09-09T13:13:01;21.10;;;4.95;;
54555;SDS011;57291;37.520;15.106;2022-09-09T13:15:29;20.65;;;4.65;;
54555;SDS011;57291;37.520;15.106;2022-09-09T13:17:59;19.15;;;4.50;;
54555;SDS011;57291;37.520;15.106;2022-09-09T13:20:29;14.65;;;4.18;;
54555;SDS011;57291;37.520;15.106;2022-09-09T13:22:57;19.23;;;4.25;;
54555;SDS011;57291;37.520;15.106;2022-09-09T13:25:26;16.90;;;4.28;;
54555;SDS011;57291;37.520;15.106;2022-09-09T13:28:04;22.35;;;4.90;;
54555;SDS011;57291;37.520;15.106;2022-09-09T13:30:33;20.40;;;4.78;;
54555;SDS011;57291;37.520;15.106;2022-09-09T13:35:51;17.83;;;4.57;;
54555;SDS011;57291;37.520;15.106;2022-09-09T13:38:22;14.82;;;4.45;;
54555;SDS011;57291;37.520;15.106;2022-09-09T13:40:57;19.58;;;4.85;;
54555;SDS011;57291;37.520;15.106;2022-09-09T13:43:26;26.40;;;4.28;;
54555;SDS011;57291;37.520;15.106;2022-09-09T13:45:55;19.38;;;4.78;;
54555;SDS011;57291;37.520;15.106;2022-09-09T13:48:25;17.25;;;4.28;;
54555;SDS011;57291;37.520;15.106;2022-09-09T13:50:56;16.90;;;4.47;;
54555;SDS011;57291;37.520;15.106;2022-09-09T13:53:29;17.92;;;4.40;;
54555;SDS011;57291;37.520;15.106;2022-09-09T13:55:57;15.95;;;4.38;;
54555;SDS011;57291;37.520;15.106;2022-09-09T13:58:25;19.95;;;4.57;;
54555;SDS011;57291;37.520;15.106;2022-09-09T14:00:53;17.95;;;4.10;;
54555;SDS011;57291;37.520;15.106;2022-09-09T14:03:21;17.80;;;4.18;;
54555;SDS011;57291;37.520;15.106;2022-09-09T14:05:48;24.23;;;5.53;;
54555;SDS011;57291;37.520;15.106;2022-09-09T14:08:20;22.73;;;5.30;;
54555;SDS011;57291;37.520;15.106;2022-09-09T14:10:50;24.58;;;5.30;;
54555;SDS011;57291;37.520;15.106;2022-09-09T14:13:17;19.50;;;5.07;;
54555;SDS011;57291;37.520;15.106;2022-09-09T14:15:44;17.08;;;5.82;;
54555;SDS011;57291;37.520;15.106;2022-09-09T14:18:12;15.80;;;5.60;;
54555;SDS011;57291;37.520;15.106;2022-09-09T14:20:40;19.08;;;5.32;;
54555;SDS011;57291;37.520;15.106;2022-09-09T14:23:09;18.83;;;5.40;;
54555;SDS011;57291;37.520;15.106;2022-09-09T14:25:41;21.50;;;5.45;;
54555;SDS011;57291;37.520;15.106;2022-09-09T14:28:12;14.65;;;4.85;;
54555;SDS011;57291;37.520;15.106;2022-09-09T14:30:42;24.00;;;5.22;;
54555;SDS011;57291;37.520;15.106;2022-09-09T14:33:12;24.38;;;5.97;;
54555;SDS011;57291;37.520;15.106;2022-09-09T14:35:41;28.20;;;5.97;;
54555;SDS011;57291;37.520;15.106;2022-09-09T14:38:09;18.33;;;5.50;;
54555;SDS011;57291;37.520;15.106;2022-09-09T14:40:44;23.50;;;5.57;;
54555;SDS011;57291;37.520;15.106;2022-09-09T14:43:13;21.92;;;5.75;;
54555;SDS011;57291;37.520;15.106;2022-09-09T14:45:41;21.52;;;5.50;;
54555;SDS011;57291;37.520;15.106;2022-09-09T14:48:08;20.60;;;4.90;;
54555;SDS011;57291;37.520;15.106;2022-09-09T14:50:36;15.98;;;4.65;;
54555;SDS011;57291;37.520;15.106;2022-09-09T14:53:07;19.67;;;5.30;;
54555;SDS011;57291;37.520;15.106;2022-09-09T14:55:35;21.95;;;5.50;;
54555;SDS011;57291;37.520;15.106;2022-09-09T14:58:03;17.08;;;4.82;;
54555;SDS011;57291;37.520;15.106;2022-09-09T15:00:32;16.70;;;4.95;;
54555;SDS011;57291;37.520;15.106;2022-09-09T15:02:59;17.55;;;5.10;;
54555;SDS011;57291;37.520;15.106;2022-09-09T15:05:26;12.80;;;5.25;;
54555;SDS011;57291;37.520;15.106;2022-09-09T15:07:54;18.92;;;4.82;;
54555;SDS011;57291;37.520;15.106;2022-09-09T15:10:21;15.35;;;4.55;;
54555;SDS011;57291;37.520;15.106;2022-09-09T15:12:48;18.75;;;4.93;;
54555;SDS011;57291;37.520;15.106;2022-09-09T15:15:16;17.30;;;5.05;;
54555;SDS011;57291;37.520;15.106;2022-09-09T15:17:43;16.83;;;5.80;;
54555;SDS011;57291;37.520;15.106;2022-09-09T15:20:11;21.73;;;5.30;;
54555;SDS011;57291;37.520;15.106;2022-09-09T15:22:38;18.25;;;5.85;;
54555;SDS011;57291;37.520;15.106;2022-09-09T15:25:07;18.63;;;5.30;;
54555;SDS011;57291;37.520;15.106;2022-09-09T15:27:34;18.27;;;5.00;;
54555;SDS011;57291;37.520;15.106;2022-09-09T15:30:02;18.80;;;5.65;;
54555;SDS011;57291;37.520;15.106;2022-09-09T15:32:29;23.17;;;5.35;;
54555;SDS011;57291;37.520;15.106;2022-09-09T15:34:56;19.50;;;4.68;;
54555;SDS011;57291;37.520;15.106;2022-09-09T15:37:24;15.65;;;5.05;;
54555;SDS011;57291;37.520;15.106;2022-09-09T15:39:51;17.58;;;5.30;;
54555;SDS011;57291;37.520;15.106;2022-09-09T15:42:18;20.55;;;5.10;;
54555;SDS011;57291;37.520;15.106;2022-09-09T15:44:45;18.20;;;4.35;;
54555;SDS011;57291;37.520;15.106;2022-09-09T15:47:12;16.88;;;4.43;;
54555;SDS011;57291;37.520;15.106;2022-09-09T15:49:40;21.48;;;4.90;;
54555;SDS011;57291;37.520;15.106;2022-09-09T15:52:09;19.00;;;5.28;;
54555;SDS011;57291;37.520;15.106;2022-09-09T15:54:39;14.52;;;4.35;;
54555;SDS011;57291;37.520;15.106;2022-09-09T15:57:07;24.50;;;4.93;;
54555;SDS011;57291;37.520;15.106;2022-09-09T15:59:38;19.40;;;4.45;;
54555;SDS011;57291;37.520;15.106;2022-09-09T16:02:05;25.98;;;5.05;;
54555;SDS011;57291;37.520;15.106;2022-09-09T16:04:34;19.85;;;4.32;;
54555;SDS011;57291;37.520;15.106;2022-09-09T16:07:02;17.58;;;4.43;;
54555;SDS011;57291;37.520;15.106;2022-09-09T16:09:31;21.48;;;4.38;;
54555;SDS011;57291;37.520;15.106;2022-09-09T16:12:00;16.90;;;4.20;;
54555;SDS011;57291;37.520;15.106;2022-09-09T16:14:29;21.08;;;3.90;;
54555;SDS011;57291;37.520;15.106;2022-09-09T16:17:00;22.00;;;4.93;;
54555;SDS011;57291;37.520;15.106;2022-09-09T16:19:29;20.33;;;4.50;;
54555;SDS011;57291;37.520;15.106;2022-09-09T16:21:56;17.00;;;3.92;;
54555;SDS011;57291;37.520;15.106;2022-09-09T16:24:24;18.30;;;4.07;;
54555;SDS011;57291;37.520;15.106;2022-09-09T16:26:52;21.73;;;5.18;;
54555;SDS011;57291;37.520;15.106;2022-09-09T16:29:21;21.42;;;4.63;;
54555;SDS011;57291;37.520;15.106;2022-09-09T16:31:49;22.50;;;4.93;;
54555;SDS011;57291;37.520;15.106;2022-09-09T16:34:17;20.23;;;4.03;;
54555;SDS011;57291;37.520;15.106;2022-09-09T16:36:45;17.10;;;4.22;;
54555;SDS011;57291;37.520;15.106;2022-09-09T16:39:16;27.05;;;5.15;;
54555;SDS011;57291;37.520;15.106;2022-09-09T16:41:47;21.00;;;3.88;;
54555;SDS011;57291;37.520;15.106;2022-09-09T16:44:15;19.23;;;4.50;;
54555;SDS011;57291;37.520;15.106;2022-09-09T16:46:45;25.30;;;4.60;;
54555;SDS011;57291;37.520;15.106;2022-09-09T16:49:15;21.98;;;3.92;;
54555;SDS011;57291;37.520;15.106;2022-09-09T16:51:44;28.20;;;4.22;;
54555;SDS011;57291;37.520;15.106;2022-09-09T16:54:14;21.63;;;4.10;;
54555;SDS011;57291;37.520;15.106;2022-09-09T16:56:43;24.35;;;4.18;;
54555;SDS011;57291;37.520;15.106;2022-09-09T16:59:13;28.20;;;3.97;;
54555;SDS011;57291;37.520;15.106;2022-09-09T17:01:42;21.40;;;4.00;;
54555;SDS011;57291;37.520;15.106;2022-09-09T17:04:15;20.40;;;3.45;;
54555;SDS011;57291;37.520;15.106;2022-09-09T17:06:47;19.55;;;4.00;;
54555;SDS011;57291;37.520;15.106;2022-09-09T17:09:16;24.48;;;4.25;;
54555;SDS011;57291;37.520;15.106;2022-09-09T17:11:44;22.02;;;4.65;;
54555;SDS011;57291;37.520;15.106;2022-09-09T17:14:13;19.75;;;4.22;;
54555;SDS011;57291;37.520;15.106;2022-09-09T17:16:42;18.13;;;4.05;;